createdAt,value
2018-02-15T00:00:50.847Z,47.90
2018-02-15T00:03:20.987Z,47.90
2018-02-15T00:05:52.061Z,47.40
2018-02-15T00:08:21.781Z,47.40
2018-02-15T00:10:51.162Z,47.40
2018-02-15T00:13:22.222Z,47.40
2018-02-15T00:15:54.108Z,47.70
2018-02-15T00:18:23.539Z,48.10
2018-02-15T00:20:53.246Z,48.10
2018-02-15T00:23:23.034Z,47.70
2018-02-15T00:25:52.413Z,47.50
2018-02-15T00:28:22.954Z,47.50
2018-02-15T00:30:53.688Z,47.60
2018-02-15T00:33:24.296Z,47.50
2018-02-15T00:35:54.680Z,47.60
2018-02-15T00:38:26.005Z,47.60
2018-02-15T00:40:56.255Z,47.60
2018-02-15T00:43:25.625Z,47.20
2018-02-15T00:45:55.290Z,47.40
2018-02-15T00:48:24.682Z,47.40
2018-02-15T00:50:56.467Z,47.00
2018-02-15T00:53:25.878Z,46.80
2018-02-15T00:55:55.797Z,46.90
2018-02-15T00:58:26.171Z,46.90
2018-02-15T01:00:55.669Z,46.90
2018-02-15T01:03:25.161Z,46.90
2018-02-15T01:05:54.535Z,46.50
2018-02-15T01:08:24.329Z,46.30
2018-02-15T01:10:54.024Z,45.90
2018-02-15T01:13:23.408Z,45.90
2018-02-15T01:15:54.185Z,45.80
2018-02-15T01:18:23.565Z,46.00
2018-02-15T01:20:53.236Z,45.80
2018-02-15T01:23:22.796Z,46.10
2018-02-15T01:25:52.203Z,45.80
2018-02-15T01:28:22.874Z,45.50
2018-02-15T01:30:52.225Z,45.40
2018-02-15T01:33:21.709Z,45.40
2018-02-15T01:35:51.328Z,45.70
2018-02-15T01:38:21.538Z,45.70
2018-02-15T01:40:52.114Z,45.20
2018-02-15T01:43:22.600Z,45.50
2018-02-15T01:45:52.824Z,45.30
2018-02-15T01:48:22.520Z,45.40
2018-02-15T01:50:52.244Z,46.00
2018-02-15T01:53:21.876Z,45.50
2018-02-15T01:55:51.852Z,45.40
2018-02-15T01:58:21.272Z,45.10
2018-02-15T02:00:51.536Z,45.30
2018-02-15T02:03:21.906Z,45.30
2018-02-15T02:05:51.576Z,45.10
2018-02-15T02:08:22.309Z,45.20
2018-02-15T02:10:52.100Z,45.20
2018-02-15T02:13:21.598Z,45.20
2018-02-15T02:15:51.216Z,45.20
2018-02-15T02:18:21.670Z,45.40
2018-02-15T02:20:51.468Z,45.50
2018-02-15T02:23:21.240Z,45.30
2018-02-15T02:25:51.630Z,45.40
2018-02-15T02:28:21.303Z,45.50
2018-02-15T02:30:50.802Z,45.40
2018-02-15T02:33:21.354Z,45.50
2018-02-15T02:35:51.147Z,45.60
2018-02-15T02:38:21.992Z,45.80
2018-02-15T02:40:51.871Z,45.80
2018-02-15T02:43:21.592Z,45.60
2018-02-15T02:45:51.017Z,46.10
2018-02-15T02:48:21.030Z,45.80
2018-02-15T02:50:51.268Z,45.80
2018-02-15T02:53:20.660Z,45.60
2018-02-15T02:55:51.317Z,45.70
2018-02-15T02:58:21.507Z,45.70
2018-02-15T03:00:51.095Z,45.70
2018-02-15T03:03:22.242Z,46.30
2018-02-15T03:05:51.621Z,45.90
2018-02-15T03:08:21.905Z,46.00
2018-02-15T03:10:52.813Z,46.20
2018-02-15T03:13:23.746Z,46.20
2018-02-15T03:15:53.173Z,46.50
2018-02-15T03:18:22.560Z,46.50
2018-02-15T03:20:52.859Z,46.90
2018-02-15T03:23:22.230Z,46.90
2018-02-15T03:25:51.639Z,46.80
2018-02-15T03:28:21.939Z,47.60
2018-02-15T03:30:52.137Z,47.80
2018-02-15T03:33:22.476Z,49.00
2018-02-15T03:35:51.879Z,49.00
2018-02-15T03:38:22.101Z,49.80
2018-02-15T03:40:51.809Z,50.00
2018-02-15T03:43:22.551Z,50.70
2018-02-15T03:45:52.881Z,52.00
2018-02-15T03:48:23.371Z,52.00
2018-02-15T03:50:54.575Z,54.30
2018-02-15T03:53:24.002Z,54.30
2018-02-15T03:55:53.697Z,54.40
2018-02-15T03:58:23.341Z,55.50
2018-02-15T04:00:54.240Z,56.40
2018-02-15T04:03:23.616Z,56.60
2018-02-15T04:05:53.029Z,57.70
2018-02-15T04:08:23.040Z,59.40
2018-02-15T04:10:52.945Z,61.00
2018-02-15T04:13:22.355Z,63.50
2018-02-15T04:15:51.765Z,65.50
2018-02-15T04:18:21.187Z,67.40
2018-02-15T04:20:51.328Z,69.40
2018-02-15T04:23:21.814Z,73.20
2018-02-15T04:25:51.806Z,73.20
2018-02-15T04:28:21.191Z,74.30
2018-02-15T04:30:50.606Z,75.50
2018-02-15T04:33:20.005Z,76.70
2018-02-15T04:35:49.373Z,78.10
2018-02-15T04:38:18.824Z,78.30
2018-02-15T04:40:50.304Z,79.30
2018-02-15T04:43:20.482Z,80.50
2018-02-15T04:45:51.077Z,80.10
2018-02-15T04:48:20.486Z,80.90
2018-02-15T04:50:49.934Z,80.70
2018-02-15T04:53:19.334Z,80.60
2018-02-15T04:55:50.336Z,81.40
2018-02-15T04:58:20.062Z,82.30
2018-02-15T05:00:49.760Z,82.30
2018-02-15T05:03:19.179Z,82.40
2018-02-15T05:05:50.089Z,82.90
2018-02-15T05:08:19.458Z,83.10
2018-02-15T05:10:50.448Z,83.70
2018-02-15T05:13:20.348Z,83.60
2018-02-15T05:15:50.484Z,84.10
2018-02-15T05:18:20.393Z,84.30
2018-02-15T05:20:50.218Z,84.30
2018-02-15T05:23:19.612Z,84.30
2018-02-15T05:25:49.577Z,84.50
2018-02-15T05:28:19.833Z,84.80
2018-02-15T05:30:49.257Z,84.80
2018-02-15T05:33:19.620Z,84.80
2018-02-15T05:35:49.857Z,84.30
2018-02-15T05:38:19.253Z,84.60
2018-02-15T05:40:48.713Z,84.60
2018-02-15T05:43:18.229Z,84.40
2018-02-15T05:45:48.410Z,84.70
2018-02-15T05:48:17.849Z,84.70
2018-02-15T05:50:48.157Z,85.40
2018-02-15T05:53:18.086Z,85.40
2018-02-15T05:55:48.357Z,85.20
2018-02-15T05:58:17.959Z,85.20
2018-02-15T06:00:47.392Z,85.50
2018-02-15T06:03:16.789Z,85.60
2018-02-15T06:05:46.352Z,85.80
2018-02-15T06:08:16.080Z,86.10
2018-02-15T06:10:45.522Z,85.90
2018-02-15T06:13:18.675Z,85.60
2018-02-15T06:15:50.414Z,85.80
2018-02-15T06:18:19.825Z,85.70
2018-02-15T06:20:49.281Z,85.70
2018-02-15T06:23:20.785Z,85.60
2018-02-15T06:25:50.590Z,85.60
2018-02-15T06:28:22.120Z,85.80
2018-02-15T06:30:52.385Z,85.70
2018-02-15T06:33:23.181Z,85.90
2018-02-15T06:35:52.697Z,86.10
2018-02-15T06:38:22.691Z,86.00
2018-02-15T06:40:52.821Z,85.80
2018-02-15T06:43:23.373Z,86.10
2018-02-15T06:45:52.826Z,86.00
2018-02-15T06:48:22.221Z,85.80
2018-02-15T06:50:52.457Z,86.10
2018-02-15T06:53:21.847Z,86.10
2018-02-15T06:55:51.231Z,86.00
2018-02-15T06:58:21.381Z,85.90
2018-02-15T07:00:51.654Z,85.50
2018-02-15T07:03:21.035Z,85.60
2018-02-15T07:05:54.169Z,85.70
2018-02-15T07:08:25.931Z,85.80
2018-02-15T07:10:55.501Z,85.80
2018-02-15T07:13:24.957Z,85.50
2018-02-15T07:15:55.203Z,85.20
2018-02-15T07:18:24.907Z,84.90
2018-02-15T07:20:55.736Z,84.70
2018-02-15T07:23:25.261Z,85.20
2018-02-15T07:25:55.941Z,84.90
2018-02-15T07:28:25.317Z,84.70
2018-02-15T07:30:56.251Z,84.00
2018-02-15T07:33:26.269Z,84.00
2018-02-15T07:35:56.465Z,84.00
2018-02-15T07:38:26.655Z,83.90
2018-02-15T07:41:00.062Z,84.00
2018-02-15T07:43:30.819Z,84.20
2018-02-15T07:46:01.143Z,84.10
2018-02-15T07:48:31.133Z,83.60
2018-02-15T07:51:00.676Z,83.20
2018-02-15T07:53:30.913Z,82.70
2018-02-15T07:56:00.753Z,82.70
2018-02-15T07:58:30.285Z,82.30
2018-02-15T08:00:59.913Z,82.60
2018-02-15T08:03:30.373Z,82.30
2018-02-15T08:05:59.803Z,82.30
2018-02-15T08:08:29.794Z,82.60
2018-02-15T08:11:00.223Z,81.90
2018-02-15T08:13:30.485Z,83.00
2018-02-15T08:15:59.929Z,82.60
2018-02-15T08:18:29.314Z,83.00
2018-02-15T08:21:00.410Z,83.10
2018-02-15T08:23:31.508Z,83.40
2018-02-15T08:26:00.918Z,83.30
2018-02-15T08:28:31.178Z,83.20
2018-02-15T08:31:01.550Z,83.30
2018-02-15T08:33:31.659Z,83.20
2018-02-15T08:36:01.861Z,82.00
2018-02-15T08:38:33.085Z,82.00
2018-02-15T08:41:02.618Z,82.10
2018-02-15T08:43:32.797Z,82.00
2018-02-15T08:46:03.166Z,82.10
2018-02-15T08:48:34.722Z,82.10
2018-02-15T08:51:07.348Z,82.30
2018-02-15T08:53:36.821Z,82.30
2018-02-15T08:56:06.514Z,82.40
2018-02-15T08:58:35.937Z,82.80
2018-02-15T09:01:05.446Z,82.30
2018-02-15T09:03:35.657Z,82.70
2018-02-15T09:06:06.714Z,82.60
2018-02-15T09:08:37.224Z,82.30
2018-02-15T09:11:06.650Z,82.60
2018-02-15T09:13:36.218Z,82.90
2018-02-15T09:16:05.816Z,82.00
2018-02-15T09:18:35.354Z,82.10
2018-02-15T09:21:05.573Z,82.30
2018-02-15T09:23:35.920Z,81.70
2018-02-15T09:26:05.333Z,82.80
2018-02-15T09:28:37.698Z,82.00
2018-02-15T09:31:08.441Z,81.90
2018-02-15T09:33:38.637Z,81.90
2018-02-15T09:36:10.872Z,82.40
2018-02-15T09:38:42.112Z,82.40
2018-02-15T09:41:11.672Z,81.20
2018-02-15T09:43:41.122Z,81.90
2018-02-15T09:46:10.624Z,82.20
2018-02-15T09:48:40.267Z,82.00
2018-02-15T09:51:09.682Z,82.60
2018-02-15T09:53:40.575Z,82.90
2018-02-15T09:56:10.676Z,82.40
2018-02-15T09:58:40.126Z,82.30
2018-02-15T10:03:49.765Z,83.20
2018-02-15T10:06:20.209Z,83.50
2018-02-15T10:08:49.757Z,83.50
2018-02-15T10:11:19.692Z,83.90
2018-02-15T10:13:49.333Z,82.90
2018-02-15T10:16:18.781Z,83.00
2018-02-15T10:18:49.457Z,83.40
2018-02-15T10:21:18.890Z,83.70
2018-02-15T10:23:50.009Z,83.70
2018-02-15T10:26:20.382Z,83.70
2018-02-15T10:28:49.829Z,83.90
2018-02-15T10:31:19.246Z,84.20
2018-02-15T10:33:49.731Z,83.90
2018-02-15T10:36:19.187Z,85.10
2018-02-15T10:38:52.709Z,84.50
2018-02-15T10:41:23.797Z,85.00
2018-02-15T10:43:53.273Z,85.00
2018-02-15T10:46:22.747Z,84.30
2018-02-15T10:48:52.211Z,84.20
2018-02-15T10:51:21.675Z,84.30
2018-02-15T10:53:51.120Z,84.90
2018-02-15T10:56:22.872Z,85.10
2018-02-15T10:58:53.982Z,85.00
2018-02-15T11:01:27.572Z,84.60
2018-02-15T11:04:02.646Z,84.60
2018-02-15T11:06:32.070Z,84.40
2018-02-15T11:09:02.680Z,84.70
2018-02-15T11:11:32.727Z,84.70
2018-02-15T11:14:02.875Z,84.20
2018-02-15T11:16:34.258Z,84.50
2018-02-15T11:19:06.546Z,84.00
2018-02-15T11:21:36.739Z,85.00
2018-02-15T11:24:06.251Z,83.90
2018-02-15T11:26:36.599Z,83.30
2018-02-15T11:29:06.843Z,83.50
2018-02-15T11:31:37.341Z,83.40
2018-02-15T11:34:07.557Z,84.50
2018-02-15T11:36:37.949Z,84.50
2018-02-15T11:39:08.534Z,83.50
2018-02-15T11:41:38.005Z,83.00
2018-02-15T11:44:08.839Z,83.80
2018-02-15T11:46:39.989Z,83.80
2018-02-15T11:49:12.192Z,83.70
2018-02-15T11:51:43.064Z,83.70
2018-02-15T11:54:13.721Z,83.40
2018-02-15T11:56:44.509Z,84.20
2018-02-15T11:59:14.706Z,84.20
2018-02-15T12:01:44.333Z,84.10
2018-02-15T12:04:14.043Z,84.50
2018-02-15T12:06:43.650Z,83.20
2018-02-15T12:09:13.064Z,83.40
2018-02-15T12:11:42.547Z,83.70
2018-02-15T12:14:11.999Z,82.90
2018-02-15T12:16:42.251Z,83.20
2018-02-15T12:19:12.304Z,83.00
2018-02-15T12:21:42.996Z,83.60
2018-02-15T12:24:12.583Z,83.30
2018-02-15T12:26:42.039Z,83.90
2018-02-15T12:29:11.530Z,84.10
2018-02-15T12:31:41.314Z,84.10
2018-02-15T12:37:53.733Z,83.80
2018-02-15T12:40:23.076Z,84.10
2018-02-15T12:42:52.675Z,84.50
2018-02-15T12:45:22.940Z,84.10
2018-02-15T12:47:52.747Z,84.00
2018-02-15T12:50:22.395Z,83.00
2018-02-15T12:52:51.472Z,83.00
2018-02-15T12:55:21.362Z,83.70
2018-02-15T12:57:51.392Z,83.80
2018-02-15T13:00:20.369Z,83.70
2018-02-15T13:02:50.132Z,83.10
2018-02-15T13:05:19.067Z,83.00
2018-02-15T13:07:48.963Z,83.00
2018-02-15T13:10:18.279Z,83.10
2018-02-15T13:13:50.356Z,82.80
2018-02-15T13:16:31.124Z,83.30
2018-02-15T13:19:10.187Z,83.60
2018-02-15T13:21:39.338Z,83.60
2018-02-15T13:24:09.808Z,83.10
2018-02-15T13:26:39.447Z,83.00
2018-02-15T13:29:09.359Z,83.40
2018-02-15T13:31:38.805Z,83.50
2018-02-15T13:34:09.518Z,83.20
2018-02-15T13:36:39.835Z,83.60
2018-02-15T13:39:09.972Z,84.20
2018-02-15T13:41:39.758Z,84.20
2018-02-15T13:44:09.973Z,83.70
2018-02-15T13:46:39.471Z,83.70
2018-02-15T13:49:13.832Z,83.70
2018-02-15T13:51:43.777Z,83.90
2018-02-15T13:54:12.836Z,84.00
2018-02-15T13:56:42.118Z,84.40
2018-02-15T13:59:11.062Z,84.10
2018-02-15T14:01:41.158Z,84.10
2018-02-15T14:04:10.238Z,84.10
2018-02-15T14:06:39.135Z,84.50
2018-02-15T14:09:08.138Z,84.60
2018-02-15T14:11:36.916Z,84.50
2018-02-15T14:14:05.748Z,84.60
2018-02-15T14:16:34.828Z,84.80
2018-02-15T14:19:03.647Z,85.20
2018-02-15T14:21:33.426Z,84.40
2018-02-15T14:24:03.097Z,84.40
2018-02-15T14:26:32.314Z,84.70
2018-02-15T14:29:01.754Z,85.10
2018-02-15T14:31:31.584Z,85.80
2018-02-15T14:34:01.147Z,85.80
2018-02-15T14:36:30.477Z,85.30
2018-02-15T14:39:00.574Z,85.40
2018-02-15T14:41:29.641Z,84.90
2018-02-15T14:43:58.966Z,85.90
2018-02-15T14:46:28.900Z,84.30
2018-02-15T14:49:00.276Z,84.70
2018-02-15T14:51:31.321Z,84.70
2018-02-15T14:54:03.566Z,84.70
2018-02-15T14:56:36.228Z,84.40
2018-02-15T14:59:06.515Z,84.40
2018-02-15T15:01:37.358Z,84.60
2018-02-15T15:04:08.069Z,84.70
2018-02-15T15:06:37.197Z,84.70
2018-02-15T15:09:07.132Z,84.70
2018-02-15T15:11:38.341Z,84.50
2018-02-15T15:14:07.767Z,84.40
2018-02-15T15:16:40.106Z,84.70
2018-02-15T15:19:10.113Z,84.70
2018-02-15T15:21:41.668Z,84.00
2018-02-15T15:24:11.895Z,84.10
2018-02-15T15:26:41.704Z,84.00
2018-02-15T15:29:11.742Z,84.10
2018-02-15T15:31:45.153Z,84.10
2018-02-15T15:34:15.011Z,83.80
2018-02-15T15:36:45.988Z,84.00
2018-02-15T15:39:15.794Z,84.40
2018-02-15T15:41:48.610Z,85.10
2018-02-15T15:44:19.455Z,84.70
2018-02-15T15:46:52.144Z,84.80
2018-02-15T15:49:23.419Z,84.50
2018-02-15T15:51:55.756Z,84.10
2018-02-15T15:54:32.143Z,84.30
2018-02-15T15:57:04.681Z,84.50
2018-02-15T16:06:52.560Z,84.70
2018-02-15T16:09:52.314Z,84.80
2018-02-15T16:12:38.518Z,84.40
2018-02-15T16:15:35.910Z,84.40
2018-02-15T16:18:16.686Z,84.20
2018-02-15T16:24:10.289Z,84.50
2018-02-15T16:27:18.852Z,84.70
2018-02-15T16:30:02.795Z,85.10
2018-02-15T16:32:46.691Z,85.30
2018-02-15T16:44:11.386Z,85.30
2018-02-15T16:47:20.363Z,85.40
2018-02-15T16:50:21.606Z,84.90
2018-02-15T17:02:59.046Z,84.90
2018-02-15T17:21:33.068Z,85.60
2018-02-15T17:24:35.482Z,85.50
2018-02-15T17:30:22.873Z,85.90
2018-02-15T17:36:40.280Z,86.90
2018-02-15T17:45:19.007Z,87.20
2018-02-15T17:48:08.865Z,87.20
2018-02-15T17:54:21.251Z,87.00
2018-02-15T18:00:27.923Z,86.70
2018-02-15T18:03:12.160Z,86.80
2018-02-15T18:05:59.686Z,86.80
2018-02-15T18:09:02.500Z,86.50
2018-02-15T18:17:54.590Z,86.40
2018-02-15T18:20:30.412Z,86.40
2018-02-15T18:26:02.293Z,86.40
2018-02-15T18:28:57.120Z,85.50
2018-02-15T18:31:28.243Z,85.50
2018-02-15T18:34:21.056Z,86.10
2018-02-15T18:37:29.783Z,86.20
2018-02-15T18:40:00.926Z,86.70
2018-02-15T18:42:32.778Z,87.20
2018-02-15T18:45:07.691Z,87.40
2018-02-15T18:47:38.231Z,87.50
2018-02-15T18:50:08.375Z,87.70
2018-02-15T18:52:38.526Z,87.90
2018-02-15T18:55:10.650Z,88.00
2018-02-15T18:57:41.805Z,87.70
2018-02-15T19:00:14.672Z,88.20
2018-02-15T19:05:31.117Z,88.60
2018-02-15T19:08:06.952Z,88.50
2018-02-15T19:10:37.771Z,88.80
2018-02-15T19:13:08.840Z,88.80
2018-02-15T19:15:43.938Z,89.10
2018-02-15T19:18:14.094Z,89.10
2018-02-15T19:20:45.673Z,89.70
2018-02-15T19:23:15.895Z,89.60
2018-02-15T19:25:45.903Z,89.70
2018-02-15T19:28:16.282Z,89.50
2018-02-15T19:30:49.657Z,88.90
2018-02-15T19:33:19.710Z,88.90
2018-02-15T19:35:50.860Z,88.80
2018-02-15T19:38:21.720Z,88.80
2018-02-15T19:40:53.813Z,88.80
2018-02-15T19:43:25.588Z,88.80
2018-02-15T19:45:55.640Z,88.80
2018-02-15T19:48:26.020Z,88.80
2018-02-15T19:50:57.285Z,88.80
2018-02-15T19:53:29.030Z,88.90
2018-02-15T19:56:00.101Z,88.90
2018-02-15T20:01:32.387Z,88.70
2018-02-15T20:04:02.402Z,88.70
2018-02-15T20:09:48.891Z,88.40
2018-02-15T20:12:18.997Z,88.40
2018-02-15T20:15:07.459Z,88.60
2018-02-15T20:17:39.275Z,88.40
2018-02-15T20:20:20.375Z,88.60
2018-02-15T20:22:51.329Z,88.30
2018-02-15T20:25:23.213Z,88.60
2018-02-15T20:28:27.252Z,88.60
2018-02-15T20:30:57.718Z,88.80
2018-02-15T20:33:28.263Z,88.50
2018-02-15T20:36:13.994Z,88.50
2018-02-15T20:38:50.872Z,88.40
2018-02-15T20:41:22.697Z,88.60
2018-02-15T20:43:52.942Z,88.50
2018-02-15T20:46:23.003Z,88.20
2018-02-15T20:48:57.075Z,88.10
2018-02-15T20:53:35.010Z,87.80
2018-02-15T20:56:06.921Z,87.80
2018-02-15T20:58:37.260Z,87.90
2018-02-15T21:01:08.572Z,87.90
2018-02-15T21:03:39.492Z,87.80
2018-02-15T21:06:11.108Z,87.80
2018-02-15T21:08:45.862Z,87.80
2018-02-15T21:11:17.638Z,87.70
2018-02-15T21:13:49.531Z,87.80
2018-02-15T21:16:21.918Z,87.70
2018-02-15T21:22:40.338Z,88.10
2018-02-15T21:28:39.919Z,87.70
2018-02-15T21:31:30.451Z,87.60
2018-02-15T21:34:29.013Z,87.70
2018-02-15T21:37:23.511Z,87.70
2018-02-15T21:39:53.286Z,87.80
2018-02-15T21:42:24.436Z,87.30
2018-02-15T21:44:55.816Z,87.30
2018-02-15T21:47:26.025Z,87.00
2018-02-15T21:49:56.573Z,86.90
2018-02-15T21:52:26.793Z,86.90
2018-02-15T21:54:57.491Z,86.70
2018-02-15T21:57:30.836Z,86.70
2018-02-15T22:00:00.603Z,86.60
2018-02-15T22:02:30.279Z,86.50
2018-02-15T22:04:59.695Z,86.90
2018-02-15T22:07:32.137Z,87.30
2018-02-15T22:10:01.464Z,87.60
2018-02-15T22:12:30.813Z,88.10
2018-02-15T22:15:01.154Z,88.40
2018-02-15T22:17:30.449Z,88.40
2018-02-15T22:20:00.110Z,88.60
2018-02-15T22:22:29.723Z,88.50
2018-02-15T22:24:59.002Z,88.60
2018-02-15T22:27:28.384Z,88.80
2018-02-15T22:30:12.655Z,89.10
2018-02-15T22:32:44.612Z,89.10
2018-02-15T22:35:14.002Z,89.00
2018-02-15T22:37:43.326Z,88.90
2018-02-15T22:40:12.998Z,88.90
2018-02-15T22:43:07.311Z,88.80
2018-02-15T22:45:36.955Z,89.00
2018-02-15T22:48:06.357Z,89.40
2018-02-15T22:50:36.499Z,89.50
2018-02-15T22:53:05.861Z,89.50
2018-02-15T22:55:35.443Z,89.40
2018-02-15T22:58:15.861Z,89.20
2018-02-15T23:00:45.150Z,89.80
2018-02-15T23:03:14.830Z,89.40
2018-02-15T23:05:44.292Z,89.60
2018-02-15T23:08:13.681Z,89.40
2018-02-15T23:10:43.006Z,89.30
2018-02-15T23:13:13.177Z,89.60
2018-02-15T23:15:42.465Z,89.90
2018-02-15T23:18:12.568Z,90.00
2018-02-15T23:20:42.948Z,89.80
2018-02-15T23:23:12.251Z,89.80
2018-02-15T23:25:41.656Z,89.60
2018-02-15T23:28:11.023Z,89.70
2018-02-15T23:30:40.741Z,90.10
2018-02-15T23:33:10.095Z,89.50
2018-02-15T23:35:40.598Z,89.30
2018-02-15T23:38:09.891Z,89.20
2018-02-15T23:40:39.363Z,89.00
2018-02-15T23:43:09.439Z,88.90
2018-02-15T23:45:39.767Z,88.80
2018-02-15T23:48:09.842Z,88.90
2018-02-15T23:50:42.175Z,88.80
2018-02-15T23:53:11.509Z,89.00
2018-02-15T23:55:40.803Z,89.20
2018-02-15T23:58:10.183Z,88.90
